Time;durP1;ratioP1;P1;durP2;ratioP2;P2;SDS_P1;SDS_P2;PMS_P1;PMS_P2;Temp;Humidity;BMP_temperature;BMP_pressure;BME280_temperature;BME280_humidity;BME280_pressure;Samples;Min_cycle;Max_cycle;Signal;HPM_P1;HPM_P2
2021/11/01 00:00:43;;;;;;;11.90;4.90;;;;;;;;;;5053580;28;20532;-72
2021/11/01 00:03:10;;;;;;;14.13;4.33;;;;;;;;;;5053867;28;20863;-70
2021/11/01 00:05:38;;;;;;;12.60;4.73;;;;;;;;;;5053814;28;20530;-69
2021/11/01 00:08:05;;;;;;;20.40;4.97;;;;;;;;;;5053828;28;20445;-70
2021/11/01 00:10:33;;;;;;;22.33;5.73;;;;;;;;;;5053746;28;20441;-71
2021/11/01 00:13:00;;;;;;;13.70;4.90;;;;;;;;;;5053688;28;20449;-70
2021/11/01 00:15:28;;;;;;;16.87;5.10;;;;;;;;;;5053382;28;20532;-70
2021/11/01 00:17:56;;;;;;;22.63;3.87;;;;;;;;;;5053378;28;20444;-70
2021/11/01 00:20:23;;;;;;;11.70;4.70;;;;;;;;;;5053976;28;20481;-70
2021/11/01 00:22:51;;;;;;;19.73;4.83;;;;;;;;;;5053703;28;20445;-69
2021/11/01 00:25:20;;;;;;;15.83;4.40;;;;;;;;;;5053655;28;20795;-69
2021/11/01 00:27:47;;;;;;;13.20;3.90;;;;;;;;;;5053607;28;20481;-70
2021/11/01 00:30:15;;;;;;;17.30;4.27;;;;;;;;;;5053244;28;20452;-70
2021/11/01 00:32:42;;;;;;;13.40;4.20;;;;;;;;;;5053752;28;20829;-70
2021/11/01 00:35:11;;;;;;;16.67;4.90;;;;;;;;;;5053667;28;20869;-70
2021/11/01 00:37:38;;;;;;;14.03;4.23;;;;;;;;;;5053478;28;20440;-71
2021/11/01 00:40:06;;;;;;;15.23;5.10;;;;;;;;;;5053417;28;20818;-70
2021/11/01 00:42:33;;;;;;;11.20;3.80;;;;;;;;;;5053385;28;20447;-70
2021/11/01 00:45:00;;;;;;;20.83;5.27;;;;;;;;;;5053538;28;20781;-70
2021/11/01 00:47:28;;;;;;;19.50;5.10;;;;;;;;;;5053078;28;20437;-70
2021/11/01 00:49:56;;;;;;;16.83;4.27;;;;;;;;;;5053041;28;20923;-70
2021/11/01 00:52:26;;;;;;;12.23;3.73;;;;;;;;;;5053140;28;20481;-70
2021/11/01 00:54:58;;;;;;;17.73;4.57;;;;;;;;;;5053668;28;20824;-70
2021/11/01 00:57:26;;;;;;;23.40;3.93;;;;;;;;;;5057642;28;20516;-70
2021/11/01 00:59:53;;;;;;;9.37;3.33;;;;;;;;;;5057187;28;20480;-70
2021/11/01 01:02:20;;;;;;;14.37;3.70;;;;;;;;;;5057234;28;20544;-70
2021/11/01 01:04:48;;;;;;;19.97;3.80;;;;;;;;;;5056870;28;20484;-69
2021/11/01 01:07:15;;;;;;;11.90;3.50;;;;;;;;;;5056982;28;20932;-70
2021/11/01 01:09:43;;;;;;;19.10;6.10;;;;;;;;;;5057131;28;20444;-70
2021/11/01 01:12:11;;;;;;;10.50;3.93;;;;;;;;;;5057040;28;20455;-70
2021/11/01 01:14:44;;;;;;;21.83;4.63;;;;;;;;;;5057290;28;20445;-70
2021/11/01 01:17:11;;;;;;;13.50;3.73;;;;;;;;;;5057227;28;20985;-70
2021/11/01 01:19:50;;;;;;;16.00;4.37;;;;;;;;;;5056822;28;20570;-70
2021/11/01 01:22:28;;;;;;;11.97;3.90;;;;;;;;;;5056828;28;20502;-70
2021/11/01 01:25:10;;;;;;;12.70;3.70;;;;;;;;;;5056537;28;20433;-70
2021/11/01 01:27:38;;;;;;;16.02;4.20;;;;;;;;;;5056489;28;20475;-70
2021/11/01 01:30:05;;;;;;;12.53;3.70;;;;;;;;;;5056774;28;20198;-71
2021/11/01 01:32:33;;;;;;;13.50;3.73;;;;;;;;;;5056348;28;20435;-70
2021/11/01 01:35:00;;;;;;;12.10;4.23;;;;;;;;;;5056321;28;20441;-70
2021/11/01 01:37:27;;;;;;;15.33;4.40;;;;;;;;;;5056599;28;20524;-70
2021/11/01 01:39:54;;;;;;;18.60;3.33;;;;;;;;;;5056198;28;21023;-70
2021/11/01 01:42:23;;;;;;;23.37;5.23;;;;;;;;;;5056614;28;20892;-70
2021/11/01 01:44:50;;;;;;;11.03;4.13;;;;;;;;;;5056124;28;20535;-70
2021/11/01 01:47:17;;;;;;;16.70;4.57;;;;;;;;;;5056525;28;20445;-70
2021/11/01 01:49:44;;;;;;;14.90;3.90;;;;;;;;;;5056048;28;20452;-70
2021/11/01 01:52:12;;;;;;;11.33;3.43;;;;;;;;;;5055960;28;20569;-71
2021/11/01 01:54:39;;;;;;;20.77;4.70;;;;;;;;;;5056278;28;20868;-71
2021/11/01 01:57:07;;;;;;;14.47;3.73;;;;;;;;;;5055931;28;20503;-70
2021/11/01 01:59:35;;;;;;;6.90;4.00;;;;;;;;;;5056086;28;20483;-71
2021/11/01 02:02:03;;;;;;;14.47;3.53;;;;;;;;;;5056083;28;20520;-70
2021/11/01 02:04:30;;;;;;;11.13;3.53;;;;;;;;;;5055651;28;20453;-70
2021/11/01 02:07:06;;;;;;;22.00;4.50;;;;;;;;;;5054361;28;20434;-70
2021/11/01 02:09:36;;;;;;;19.03;3.63;;;;;;;;;;5055676;28;20467;-72
2021/11/01 02:12:04;;;;;;;18.10;3.67;;;;;;;;;;5055665;28;20503;-70
2021/11/01 02:14:33;;;;;;;15.23;4.40;;;;;;;;;;5056169;28;20447;-71
2021/11/01 02:17:02;;;;;;;10.10;3.43;;;;;;;;;;5055770;28;20441;-70
2021/11/01 02:19:31;;;;;;;10.40;3.70;;;;;;;;;;5055027;28;20495;-70
2021/11/01 02:22:03;;;;;;;16.03;4.30;;;;;;;;;;5055502;28;20452;-70
2021/11/01 02:24:40;;;;;;;13.87;5.07;;;;;;;;;;5055819;28;20436;-70
2021/11/01 02:27:11;;;;;;;17.73;4.40;;;;;;;;;;5055027;28;20920;-70
2021/11/01 02:29:41;;;;;;;10.33;3.80;;;;;;;;;;5055808;28;20431;-70
2021/11/01 02:32:09;;;;;;;18.73;4.30;;;;;;;;;;5055233;28;20442;-70
2021/11/01 02:34:36;;;;;;;9.30;3.77;;;;;;;;;;5055095;28;20440;-70
2021/11/01 02:37:03;;;;;;;13.30;4.20;;;;;;;;;;5055140;28;20450;-69
2021/11/01 02:39:32;;;;;;;13.00;5.27;;;;;;;;;;5054621;28;20579;-70
2021/11/01 02:42:00;;;;;;;14.97;4.27;;;;;;;;;;5055041;28;20539;-70
2021/11/01 02:44:29;;;;;;;9.23;3.27;;;;;;;;;;5054993;28;20538;-70
2021/11/01 02:46:56;;;;;;;11.40;3.73;;;;;;;;;;5054597;28;20539;-70
2021/11/01 02:49:23;;;;;;;11.35;4.00;;;;;;;;;;5054593;28;20449;-70
2021/11/01 02:51:51;;;;;;;10.73;4.50;;;;;;;;;;5054518;28;20226;-71
2021/11/01 02:54:18;;;;;;;13.80;3.03;;;;;;;;;;5054558;28;20959;-70
2021/11/01 02:56:45;;;;;;;10.50;3.30;;;;;;;;;;5054419;28;20436;-71
2021/11/01 02:59:13;;;;;;;6.63;3.23;;;;;;;;;;5054550;28;20540;-70
2021/11/01 03:01:41;;;;;;;12.10;3.70;;;;;;;;;;5055183;28;20941;-69
2021/11/01 03:04:08;;;;;;;11.87;3.23;;;;;;;;;;5055081;28;20434;-70
2021/11/01 03:06:36;;;;;;;6.60;3.40;;;;;;;;;;5055128;28;20442;-70
2021/11/01 03:09:03;;;;;;;15.37;3.20;;;;;;;;;;5054138;28;20433;-70
2021/11/01 03:11:30;;;;;;;16.93;3.00;;;;;;;;;;5054305;28;20441;-70
2021/11/01 03:13:59;;;;;;;16.60;3.67;;;;;;;;;;5054008;28;20440;-70
2021/11/01 03:16:26;;;;;;;15.97;3.80;;;;;;;;;;5054964;28;20440;-70
2021/11/01 03:19:00;;;;;;;18.70;4.20;;;;;;;;;;5053463;28;20449;-70
2021/11/01 03:21:28;;;;;;;10.23;2.70;;;;;;;;;;5054204;28;20484;-71
2021/11/01 03:23:55;;;;;;;8.30;3.30;;;;;;;;;;5054101;28;20519;-70
2021/11/01 03:26:24;;;;;;;8.40;4.00;;;;;;;;;;5053766;28;20528;-70
2021/11/01 03:28:53;;;;;;;11.50;3.70;;;;;;;;;;5053760;28;20197;-70
2021/11/01 03:31:22;;;;;;;12.87;4.20;;;;;;;;;;5054064;28;20448;-70
2021/11/01 03:33:51;;;;;;;15.80;3.83;;;;;;;;;;5053589;28;20451;-71
2021/11/01 03:36:20;;;;;;;7.80;3.50;;;;;;;;;;5053541;28;20755;-70
2021/11/01 03:38:48;;;;;;;11.00;3.47;;;;;;;;;;5053831;28;20441;-70
2021/11/01 03:41:16;;;;;;;10.40;3.47;;;;;;;;;;5053657;28;20477;-69
2021/11/01 03:43:51;;;;;;;8.73;3.45;;;;;;;;;;5053589;28;20452;-69
2021/11/01 03:46:24;;;;;;;17.70;4.10;;;;;;;;;;5053551;28;20292;-70
2021/11/01 03:48:52;;;;;;;11.27;2.70;;;;;;;;;;5053490;28;20523;-70
2021/11/01 03:51:38;;;;;;;9.90;2.88;;;;;;;;;;5053354;28;20444;-69
2021/11/01 03:54:05;;;;;;;6.90;3.20;;;;;;;;;;5054006;28;20565;-70
2021/11/01 03:56:33;;;;;;;9.60;2.90;;;;;;;;;;5053676;28;20798;-70
2021/11/01 03:59:01;;;;;;;10.60;3.80;;;;;;;;;;5053620;28;20524;-70
2021/11/01 04:01:29;;;;;;;7.20;3.13;;;;;;;;;;5053401;28;20484;-70
2021/11/01 04:03:56;;;;;;;11.50;2.93;;;;;;;;;;5053812;28;20449;-70
2021/11/01 04:06:24;;;;;;;8.17;3.57;;;;;;;;;;5053495;28;20449;-70
2021/11/01 04:08:52;;;;;;;6.78;2.78;;;;;;;;;;5053779;28;20440;-71
2021/11/01 04:11:20;;;;;;;12.50;3.73;;;;;;;;;;5053421;28;20208;-70
2021/11/01 04:13:48;;;;;;;9.25;3.13;;;;;;;;;;5053741;28;20538;-70
2021/11/01 04:16:21;;;;;;;7.85;2.75;;;;;;;;;;5053393;28;20652;-70
2021/11/01 04:18:57;;;;;;;12.02;3.13;;;;;;;;;;5054115;28;20633;-70
2021/11/01 04:21:26;;;;;;;10.27;3.10;;;;;;;;;;5054078;28;20225;-71
2021/11/01 04:23:54;;;;;;;7.32;2.72;;;;;;;;;;5053600;28;20556;-71
2021/11/01 04:26:22;;;;;;;9.80;3.20;;;;;;;;;;5053248;28;20203;-70
2021/11/01 04:28:49;;;;;;;10.50;3.53;;;;;;;;;;5053223;28;20445;-70
2021/11/01 04:31:21;;;;;;;10.50;2.70;;;;;;;;;;5052804;28;20207;-70
2021/11/01 04:33:49;;;;;;;7.88;3.15;;;;;;;;;;5053633;28;20431;-70
2021/11/01 04:36:17;;;;;;;7.13;3.05;;;;;;;;;;5053880;28;20197;-71
2021/11/01 04:38:57;;;;;;;11.90;3.70;;;;;;;;;;5053171;28;20203;-71
2021/11/01 04:41:29;;;;;;;17.27;3.33;;;;;;;;;;5053684;28;20253;-71
2021/11/01 04:55:03;;;;;;;14.83;4.10;;;;;;;;;;5053138;28;20404;-71
2021/11/01 04:57:30;;;;;;;6.45;2.33;;;;;;;;;;5053358;28;20800;-70
2021/11/01 04:59:57;;;;;;;7.77;2.97;;;;;;;;;;5053059;28;20195;-70
2021/11/01 05:02:26;;;;;;;7.40;3.38;;;;;;;;;;5052947;28;20441;-70
2021/11/01 05:04:54;;;;;;;10.95;3.58;;;;;;;;;;5053319;28;20197;-70
2021/11/01 05:07:22;;;;;;;8.02;3.10;;;;;;;;;;5053339;28;20658;-70
2021/11/01 05:09:58;;;;;;;3.63;2.75;;;;;;;;;;5052875;28;20656;-70
2021/11/01 05:12:29;;;;;;;6.72;2.97;;;;;;;;;;5052877;28;20186;-70
2021/11/01 05:15:04;;;;;;;9.83;3.13;;;;;;;;;;5053161;28;20225;-70
2021/11/01 05:17:39;;;;;;;9.10;2.90;;;;;;;;;;5053093;28;20464;-72
2021/11/01 05:20:12;;;;;;;11.87;3.43;;;;;;;;;;5053533;28;20275;-70
2021/11/01 05:22:46;;;;;;;7.05;3.25;;;;;;;;;;5053412;28;20848;-70
2021/11/01 05:25:16;;;;;;;3.55;2.38;;;;;;;;;;5052801;28;20184;-71
2021/11/01 05:27:56;;;;;;;9.43;2.65;;;;;;;;;;5052593;28;20184;-70
2021/11/01 05:30:29;;;;;;;8.93;2.55;;;;;;;;;;5069009;28;20190;-71
2021/11/01 05:33:01;;;;;;;4.93;2.83;;;;;;;;;;5072367;28;20189;-70
2021/11/01 05:35:29;;;;;;;11.35;2.85;;;;;;;;;;5073026;28;20182;-70
2021/11/01 05:37:56;;;;;;;7.55;2.50;;;;;;;;;;5072497;28;20708;-70
2021/11/01 05:40:23;;;;;;;8.30;2.83;;;;;;;;;;5072831;28;20567;-70
2021/11/01 05:42:52;;;;;;;10.97;3.17;;;;;;;;;;5075270;28;20450;-71
2021/11/01 05:45:19;;;;;;;8.47;2.90;;;;;;;;;;5075683;28;20448;-71
2021/11/01 05:47:52;;;;;;;10.40;2.90;;;;;;;;;;5076236;28;20850;-71
2021/11/01 05:50:19;;;;;;;4.17;2.97;;;;;;;;;;5076110;28;20234;-70
2021/11/01 05:52:47;;;;;;;10.30;3.25;;;;;;;;;;5076068;28;20514;-71
2021/11/01 05:55:24;;;;;;;5.13;2.88;;;;;;;;;;5075795;28;20223;-71
2021/11/01 05:58:05;;;;;;;15.47;5.47;;;;;;;;;;5075436;28;20186;-70
2021/11/01 06:00:46;;;;;;;7.38;2.80;;;;;;;;;;5074309;28;20472;-71
2021/11/01 06:03:16;;;;;;;5.35;2.72;;;;;;;;;;5075718;28;20192;-70
2021/11/01 06:08:41;;;;;;;9.63;3.35;;;;;;;;;;5072910;28;20471;-71
2021/11/01 06:13:55;;;;;;;13.23;3.20;;;;;;;;;;5075493;28;20231;-72
2021/11/01 06:16:23;;;;;;;5.20;2.63;;;;;;;;;;5075306;28;20684;-71
2021/11/01 06:18:52;;;;;;;9.73;3.00;;;;;;;;;;5075737;28;20444;-72
2021/11/01 06:21:20;;;;;;;15.88;4.35;;;;;;;;;;5075111;28;20490;-71
2021/11/01 06:23:51;;;;;;;6.38;3.15;;;;;;;;;;5075039;28;20284;-70
2021/11/01 06:26:18;;;;;;;11.50;4.22;;;;;;;;;;5075458;28;20247;-70
2021/11/01 06:28:46;;;;;;;10.90;3.90;;;;;;;;;;5075826;28;20551;-71
2021/11/01 06:31:18;;;;;;;8.07;3.38;;;;;;;;;;5073613;28;20209;-70
2021/11/01 06:34:05;;;;;;;14.05;3.75;;;;;;;;;;5074640;28;20197;-71
2021/11/01 06:39:27;;;;;;;10.13;3.10;;;;;;;;;;5075390;28;20886;-70
2021/11/01 06:44:49;;;;;;;8.60;3.97;;;;;;;;;;5058964;28;20484;-71
2021/11/01 06:50:07;;;;;;;22.58;3.72;;;;;;;;;;5075150;28;20189;-71
2021/11/01 07:14:43;;;;;;;7.45;2.83;;;;;;;;;;5074360;28;20189;-71
2021/11/01 07:17:14;;;;;;;15.10;2.93;;;;;;;;;;5074287;28;20182;-71
2021/11/01 07:22:59;;;;;;;6.13;3.13;;;;;;;;;;5048310;28;20229;-71
2021/11/01 08:23:29;;;;;;;11.23;2.70;;;;;;;;;;5047067;28;20440;-72
2021/11/01 08:39:46;;;;;;;6.97;2.30;;;;;;;;;;5042442;28;20428;-73
2021/11/01 08:50:58;;;;;;;6.40;2.60;;;;;;;;;;5073626;28;20440;-73
2021/11/01 09:04:41;;;;;;;5.60;2.50;;;;;;;;;;5060737;28;20932;-73
2021/11/01 09:21:14;;;;;;;9.77;2.70;;;;;;;;;;5076652;28;20792;-73
2021/11/01 09:23:49;;;;;;;4.13;2.53;;;;;;;;;;5076250;28;20432;-73
2021/11/01 09:26:22;;;;;;;8.33;3.07;;;;;;;;;;5076194;28;20439;-73
2021/11/01 09:28:55;;;;;;;6.03;2.50;;;;;;;;;;5076291;28;20513;-73
2021/11/01 09:36:55;;;;;;;6.83;2.73;;;;;;;;;;5075343;28;21015;-73
2021/11/01 09:39:46;;;;;;;9.13;2.80;;;;;;;;;;5076949;28;20534;-74
2021/11/01 09:42:14;;;;;;;13.23;3.17;;;;;;;;;;5076834;28;20505;-73
2021/11/01 09:44:41;;;;;;;9.33;2.77;;;;;;;;;;5076225;28;20444;-74
2021/11/01 09:47:10;;;;;;;5.30;3.00;;;;;;;;;;5075350;28;20442;-73
2021/11/01 09:49:37;;;;;;;4.33;2.80;;;;;;;;;;5076182;28;20432;-74
2021/11/01 09:52:08;;;;;;;7.50;3.33;;;;;;;;;;5075827;28;20479;-73
2021/11/01 09:54:37;;;;;;;3.37;2.60;;;;;;;;;;5075519;28;20435;-74
2021/11/01 09:57:08;;;;;;;4.63;1.90;;;;;;;;;;5075371;28;20447;-73
2021/11/01 09:59:36;;;;;;;5.20;2.30;;;;;;;;;;5075747;28;20421;-74
2021/11/01 10:02:04;;;;;;;7.80;2.43;;;;;;;;;;5075331;28;20491;-74
2021/11/01 10:04:34;;;;;;;5.27;2.30;;;;;;;;;;5074757;28;20454;-74
2021/11/01 10:07:21;;;;;;;4.00;2.00;;;;;;;;;;5075367;28;20452;-73
2021/11/01 10:09:50;;;;;;;4.80;2.63;;;;;;;;;;5075894;28;20437;-73
2021/11/01 10:12:21;;;;;;;4.60;2.70;;;;;;;;;;5075456;28;20446;-73
2021/11/01 10:14:50;;;;;;;5.77;2.87;;;;;;;;;;5075439;28;20435;-73
2021/11/01 10:17:35;;;;;;;12.90;2.70;;;;;;;;;;5075264;28;20444;-74
2021/11/01 10:20:09;;;;;;;5.33;2.43;;;;;;;;;;5075923;28;20471;-73
2021/11/01 10:22:37;;;;;;;3.40;2.03;;;;;;;;;;5075778;28;20476;-73
2021/11/01 10:25:05;;;;;;;6.57;2.57;;;;;;;;;;5074910;28;20444;-73
2021/11/01 10:27:33;;;;;;;3.90;1.80;;;;;;;;;;5074002;28;20440;-73
2021/11/01 10:30:02;;;;;;;6.63;2.33;;;;;;;;;;5075095;28;20437;-73
2021/11/01 10:32:31;;;;;;;5.20;2.83;;;;;;;;;;5075329;28;20451;-73
2021/11/01 10:35:15;;;;;;;4.70;2.50;;;;;;;;;;5073463;28;20447;-73
2021/11/01 10:37:57;;;;;;;3.97;2.63;;;;;;;;;;5074647;28;20433;-73
2021/11/01 10:40:27;;;;;;;6.20;2.83;;;;;;;;;;5075647;28;20429;-73
2021/11/01 10:43:02;;;;;;;6.73;2.40;;;;;;;;;;5075016;28;20809;-72
2021/11/01 10:45:50;;;;;;;3.47;2.33;;;;;;;;;;5074835;28;20424;-73
2021/11/01 11:11:04;;;;;;;9.00;2.73;;;;;;;;;;5074441;28;20498;-74
2021/11/01 11:13:36;;;;;;;7.30;2.67;;;;;;;;;;5074734;28;20430;-73
2021/11/01 11:16:04;;;;;;;3.00;1.83;;;;;;;;;;5073820;28;20437;-73
2021/11/01 11:18:51;;;;;;;3.40;2.40;;;;;;;;;;5074033;28;20451;-74
2021/11/01 11:21:36;;;;;;;7.23;2.20;;;;;;;;;;5074304;28;20440;-75
2021/11/01 11:26:58;;;;;;;13.37;2.40;;;;;;;;;;5073656;28;20900;-72
2021/11/01 11:32:28;;;;;;;7.77;2.10;;;;;;;;;;5047816;28;20937;-72
2021/11/01 11:38:08;;;;;;;6.73;2.53;;;;;;;;;;5072213;28;20496;-72
2021/11/01 11:40:48;;;;;;;2.60;1.90;;;;;;;;;;5073191;28;20440;-72
2021/11/01 11:48:48;;;;;;;4.67;2.40;;;;;;;;;;5073565;28;20435;-71
2021/11/01 11:51:16;;;;;;;7.30;2.17;;;;;;;;;;5073695;28;20539;-72
2021/11/01 11:53:57;;;;;;;9.90;2.33;;;;;;;;;;5074136;28;20484;-71
2021/11/01 11:56:35;;;;;;;3.07;1.97;;;;;;;;;;5073166;28;20918;-71
2021/11/01 11:59:05;;;;;;;4.20;2.30;;;;;;;;;;5074144;28;20507;-72
2021/11/01 12:01:33;;;;;;;5.67;1.57;;;;;;;;;;5073784;28;20542;-72
2021/11/01 12:04:00;;;;;;;6.40;2.20;;;;;;;;;;5073410;28;20476;-71
2021/11/01 12:06:50;;;;;;;5.67;2.23;;;;;;;;;;5073493;28;20440;-72
2021/11/01 12:09:21;;;;;;;4.97;2.33;;;;;;;;;;5071874;28;20441;-72
2021/11/01 12:17:23;;;;;;;2.63;1.70;;;;;;;;;;5072590;28;20425;-72
2021/11/01 12:19:51;;;;;;;2.40;1.67;;;;;;;;;;5072959;28;20441;-73
2021/11/01 12:22:26;;;;;;;3.50;2.00;;;;;;;;;;5073531;28;20498;-73
2021/11/01 12:24:57;;;;;;;3.23;1.83;;;;;;;;;;5073142;28;20426;-71
2021/11/01 12:27:28;;;;;;;3.77;1.70;;;;;;;;;;5071241;28;20942;-73
2021/11/01 12:29:56;;;;;;;3.17;2.07;;;;;;;;;;5073077;28;20425;-73
2021/11/01 12:32:23;;;;;;;2.43;1.70;;;;;;;;;;5073329;28;20451;-74
2021/11/01 12:34:56;;;;;;;11.23;2.03;;;;;;;;;;5072996;28;20473;-74
2021/11/01 12:37:26;;;;;;;5.00;1.97;;;;;;;;;;5072689;28;20465;-73
2021/11/01 12:40:01;;;;;;;3.53;2.00;;;;;;;;;;5071134;28;20477;-73
2021/11/01 12:42:43;;;;;;;4.50;1.70;;;;;;;;;;5073128;28;20474;-74
2021/11/01 12:45:55;;;;;;;4.90;1.77;;;;;;;;;;5073548;28;20433;-74
2021/11/01 12:59:43;;;;;;;4.40;1.87;;;;;;;;;;5040369;28;20428;-74
2021/11/01 13:02:15;;;;;;;2.00;1.60;;;;;;;;;;5076980;28;20461;-73
2021/11/01 13:04:43;;;;;;;3.60;2.03;;;;;;;;;;5076739;28;20901;-74
2021/11/01 13:10:10;;;;;;;1.80;1.50;;;;;;;;;;5038919;28;20507;-74
2021/11/01 13:12:50;;;;;;;4.37;1.83;;;;;;;;;;5076993;28;20435;-73
2021/11/01 13:18:12;;;;;;;7.60;1.60;;;;;;;;;;5076393;28;20397;-74
2021/11/01 13:20:43;;;;;;;5.40;1.90;;;;;;;;;;5076605;28;20426;-73
2021/11/01 13:23:11;;;;;;;4.20;1.90;;;;;;;;;;5076300;28;20877;-74
2021/11/01 13:25:48;;;;;;;3.90;1.80;;;;;;;;;;5077309;28;20822;-73
2021/11/01 13:36:49;;;;;;;4.63;1.60;;;;;;;;;;5076087;28;20817;-73
2021/11/01 13:39:24;;;;;;;1.40;1.30;;;;;;;;;;5076062;28;20531;-73
2021/11/01 13:41:51;;;;;;;6.93;1.63;;;;;;;;;;5074091;28;20929;-73
2021/11/01 13:44:21;;;;;;;4.00;1.90;;;;;;;;;;5076151;28;20439;-73
2021/11/01 13:46:51;;;;;;;1.60;1.50;;;;;;;;;;5075740;28;20428;-73
2021/11/01 13:49:19;;;;;;;3.93;1.70;;;;;;;;;;5076235;28;20899;-72
2021/11/01 13:51:48;;;;;;;2.10;1.50;;;;;;;;;;5075471;28;20484;-73
2021/11/01 13:54:26;;;;;;;3.20;1.50;;;;;;;;;;5075787;28;20434;-73
2021/11/01 13:56:59;;;;;;;2.77;1.40;;;;;;;;;;5075842;28;20723;-72
2021/11/01 13:59:35;;;;;;;2.47;1.83;;;;;;;;;;5076228;28;20429;-73
2021/11/01 14:02:17;;;;;;;3.33;2.00;;;;;;;;;;5075782;28;20483;-73
2021/11/01 14:13:15;;;;;;;2.00;1.40;;;;;;;;;;5075135;28;20404;-73
2021/11/01 14:16:12;;;;;;;3.47;1.70;;;;;;;;;;5076295;28;20436;-73
2021/11/01 14:19:01;;;;;;;1.50;1.40;;;;;;;;;;5075151;28;20446;-74
2021/11/01 14:33:00;;;;;;;2.03;1.47;;;;;;;;;;5049018;28;20460;-73
2021/11/01 15:14:33;;;;;;;6.93;2.23;;;;;;;;;;5037138;28;20424;-73
2021/11/01 15:17:11;;;;;;;3.00;2.20;;;;;;;;;;5073902;28;20436;-72
2021/11/01 15:20:04;;;;;;;4.00;2.20;;;;;;;;;;5074027;28;20906;-72
2021/11/01 15:28:17;;;;;;;2.67;1.70;;;;;;;;;;5074333;28;20775;-73
2021/11/01 15:33:48;;;;;;;4.80;2.03;;;;;;;;;;5073698;28;20401;-72
2021/11/01 15:39:16;;;;;;;2.77;2.10;;;;;;;;;;5073998;28;20547;-72
2021/11/01 16:15:32;;;;;;;2.27;2.07;;;;;;;;;;5072929;28;20436;-73
2021/11/01 16:18:03;;;;;;;5.40;2.50;;;;;;;;;;5073244;28;20444;-73
2021/11/01 16:20:30;;;;;;;4.00;2.33;;;;;;;;;;5073590;28;20425;-74
2021/11/01 16:23:15;;;;;;;3.10;2.10;;;;;;;;;;5074006;28;20687;-73
2021/11/01 16:25:42;;;;;;;2.60;2.00;;;;;;;;;;5072625;28;20899;-73
2021/11/01 16:28:09;;;;;;;5.53;2.33;;;;;;;;;;5072221;28;20883;-73
2021/11/01 16:30:43;;;;;;;5.50;2.50;;;;;;;;;;5073118;28;20437;-73
2021/11/01 16:33:10;;;;;;;3.10;2.20;;;;;;;;;;5072636;28;20448;-73
2021/11/01 16:35:41;;;;;;;6.97;2.90;;;;;;;;;;5072705;28;20479;-73
2021/11/01 16:38:11;;;;;;;4.10;2.30;;;;;;;;;;5072783;28;20934;-73
2021/11/01 16:40:41;;;;;;;4.10;2.77;;;;;;;;;;5073782;28;20441;-73
2021/11/01 16:43:14;;;;;;;7.20;2.43;;;;;;;;;;5071581;28;20487;-74
2021/11/01 16:45:44;;;;;;;5.83;2.57;;;;;;;;;;5073189;28;20521;-74
2021/11/01 16:48:12;;;;;;;4.67;2.73;;;;;;;;;;5073038;28;20444;-73
2021/11/01 16:50:39;;;;;;;6.83;2.20;;;;;;;;;;5073154;28;20599;-73
2021/11/01 16:53:07;;;;;;;3.90;2.40;;;;;;;;;;5072813;28;20563;-74
2021/11/01 16:55:37;;;;;;;7.57;3.20;;;;;;;;;;5072045;28;20477;-74
2021/11/01 16:58:12;;;;;;;6.40;2.40;;;;;;;;;;5072512;28;20450;-75
2021/11/01 17:00:44;;;;;;;7.27;2.47;;;;;;;;;;5073456;28;20440;-74
2021/11/01 17:03:28;;;;;;;3.10;2.40;;;;;;;;;;5073433;28;20483;-74
2021/11/01 17:06:03;;;;;;;4.30;3.37;;;;;;;;;;5073104;28;20429;-74
2021/11/01 17:22:20;;;;;;;4.90;3.30;;;;;;;;;;5072802;28;20427;-73
2021/11/01 17:24:51;;;;;;;4.20;3.47;;;;;;;;;;5072726;28;20817;-73
2021/11/01 17:35:55;;;;;;;4.10;3.20;;;;;;;;;;5072544;28;20484;-73
2021/11/01 18:45:20;;;;;;;15.30;6.80;;;;;;;;;;5075183;28;20985;-73
2021/11/01 18:50:53;;;;;;;5.53;3.00;;;;;;;;;;5073727;28;20392;-73
2021/11/01 18:53:25;;;;;;;5.23;2.97;;;;;;;;;;5074657;28;20490;-72
2021/11/01 18:55:53;;;;;;;6.93;3.50;;;;;;;;;;5074204;28;20482;-73
2021/11/01 18:58:24;;;;;;;7.10;5.13;;;;;;;;;;5074288;28;20456;-73
2021/11/01 19:00:52;;;;;;;15.10;8.70;;;;;;;;;;5074146;28;20472;-72
2021/11/01 19:03:22;;;;;;;13.93;8.40;;;;;;;;;;5074086;28;20464;-73
2021/11/01 19:05:57;;;;;;;11.57;7.33;;;;;;;;;;5074173;28;20467;-72
2021/11/01 19:08:34;;;;;;;10.13;6.33;;;;;;;;;;5073201;28;20440;-70
2021/11/01 20:03:57;;;;;;;4.40;3.90;;;;;;;;;;5053357;28;20585;-71
2021/11/01 20:06:53;;;;;;;46.70;27.98;;;;;;;;;;5053133;28;20488;-73
2021/11/01 21:24:44;;;;;;;12.87;7.67;;;;;;;;;;5056593;28;20678;-74
2021/11/01 21:27:13;;;;;;;8.13;4.63;;;;;;;;;;5057084;28;20433;-74
2021/11/01 21:29:40;;;;;;;8.93;4.60;;;;;;;;;;5056754;28;20526;-74
2021/11/01 21:32:08;;;;;;;11.30;5.30;;;;;;;;;;5056695;28;20440;-74
2021/11/01 21:34:36;;;;;;;6.20;5.00;;;;;;;;;;5056646;28;20452;-74
2021/11/01 21:37:04;;;;;;;6.00;4.63;;;;;;;;;;5056356;28;20536;-74
2021/11/01 21:39:32;;;;;;;6.82;4.43;;;;;;;;;;5056728;28;20499;-73
2021/11/01 21:42:00;;;;;;;7.03;4.10;;;;;;;;;;5056222;28;20237;-74
2021/11/01 21:44:30;;;;;;;12.23;5.55;;;;;;;;;;5056115;28;20480;-74
2021/11/01 21:46:57;;;;;;;9.32;6.13;;;;;;;;;;5056813;28;20186;-73
2021/11/01 21:49:25;;;;;;;15.02;5.85;;;;;;;;;;5056136;28;20205;-73
2021/11/01 21:51:53;;;;;;;16.83;6.30;;;;;;;;;;5056209;28;20551;-74
2021/11/01 21:54:28;;;;;;;18.85;6.60;;;;;;;;;;5056382;28;20489;-73
2021/11/01 21:56:59;;;;;;;11.68;6.50;;;;;;;;;;5056633;28;20567;-73
2021/11/01 21:59:51;;;;;;;6.00;5.30;;;;;;;;;;5056376;28;20273;-73
2021/11/01 22:19:12;;;;;;;7.20;4.80;;;;;;;;;;5075979;28;20568;-72
2021/11/01 22:21:44;;;;;;;8.43;4.93;;;;;;;;;;5075719;28;20239;-74
2021/11/01 22:24:14;;;;;;;9.40;4.63;;;;;;;;;;5075771;28;20301;-73
2021/11/01 22:26:56;;;;;;;8.68;3.97;;;;;;;;;;5076060;28;20186;-73
2021/11/01 22:32:28;;;;;;;9.20;3.70;;;;;;;;;;5075460;28;20199;-73
2021/11/01 22:40:31;;;;;;;7.00;3.30;;;;;;;;;;5075323;28;20181;-74
2021/11/01 22:43:06;;;;;;;7.53;3.70;;;;;;;;;;5075876;28;20773;-74
2021/11/01 22:45:39;;;;;;;8.40;3.50;;;;;;;;;;5075487;28;20201;-74
2021/11/01 22:56:23;;;;;;;5.88;3.20;;;;;;;;;;5075054;28;20611;-73
2021/11/01 22:58:53;;;;;;;9.23;4.07;;;;;;;;;;5013148;28;20564;-73
2021/11/01 23:01:22;;;;;;;11.52;3.60;;;;;;;;;;5013182;28;20253;-74
2021/11/01 23:04:01;;;;;;;9.82;4.15;;;;;;;;;;5013170;28;20310;-74
2021/11/01 23:06:49;;;;;;;4.63;3.30;;;;;;;;;;5013196;28;20660;-74
2021/11/01 23:31:31;;;;;;;7.63;3.30;;;;;;;;;;5012673;28;20237;-73
2021/11/01 23:33:59;;;;;;;4.65;3.50;;;;;;;;;;5012546;28;20230;-74
2021/11/01 23:36:28;;;;;;;8.55;3.97;;;;;;;;;;5043934;28;20194;-73
2021/11/01 23:38:55;;;;;;;8.82;3.58;;;;;;;;;;5074444;28;20208;-73
2021/11/01 23:41:22;;;;;;;11.77;3.80;;;;;;;;;;5074966;28;20202;-74
2021/11/01 23:43:50;;;;;;;6.10;3.17;;;;;;;;;;5074183;28;20256;-74
2021/11/01 23:46:18;;;;;;;4.15;3.63;;;;;;;;;;5074210;28;20527;-73
2021/11/01 23:48:45;;;;;;;8.32;3.15;;;;;;;;;;5074322;28;20228;-73
2021/11/01 23:51:16;;;;;;;5.80;4.32;;;;;;;;;;5073796;28;20291;-74
2021/11/01 23:53:47;;;;;;;6.47;3.20;;;;;;;;;;5073842;28;20275;-74
2021/11/01 23:56:15;;;;;;;10.52;3.50;;;;;;;;;;5074167;28;20587;-75
2021/11/01 23:58:44;;;;;;;7.03;3.28;;;;;;;;;;5073934;28;20232;-75
